createdAt,value
2023-10-26T00:00:25.252Z,7.80
2023-10-26T00:02:53.501Z,7.70
2023-10-26T00:05:34.369Z,7.70
2023-10-26T00:08:02.326Z,7.70
2023-10-26T00:10:30.184Z,7.80
2023-10-26T00:13:06.504Z,7.70
2023-10-26T00:15:34.815Z,7.70
2023-10-26T00:18:02.799Z,7.70
2023-10-26T00:20:38.217Z,7.70
2023-10-26T00:23:06.947Z,7.70
2023-10-26T00:25:34.840Z,7.70
2023-10-26T00:28:10.234Z,7.70
2023-10-26T00:30:38.110Z,7.70
2023-10-26T00:33:06.048Z,7.70
2023-10-26T00:35:40.230Z,7.80
2023-10-26T00:38:08.058Z,7.80
2023-10-26T00:40:36.025Z,7.70
2023-10-26T00:43:12.477Z,7.80
2023-10-26T00:45:40.525Z,7.70
2023-10-26T00:48:08.985Z,7.70
2023-10-26T00:50:43.215Z,7.70
2023-10-26T00:53:11.787Z,7.70
2023-10-26T00:55:40.626Z,7.70
2023-10-26T00:58:17.234Z,7.70
2023-10-26T01:00:46.845Z,7.70
2023-10-26T01:03:28.233Z,7.70
2023-10-26T01:06:03.106Z,7.70
2023-10-26T01:08:39.297Z,7.70
2023-10-26T01:11:07.783Z,7.70
2023-10-26T01:13:37.429Z,7.70
2023-10-26T01:16:12.375Z,7.70
2023-10-26T01:18:40.356Z,7.70
2023-10-26T01:21:08.442Z,7.70
2023-10-26T01:23:44.235Z,7.70
2023-10-26T01:26:12.152Z,7.70
2023-10-26T01:28:40.020Z,7.70
2023-10-26T01:31:14.537Z,7.70
2023-10-26T01:33:42.607Z,7.70
2023-10-26T01:36:10.945Z,7.70
2023-10-26T01:38:46.248Z,7.70
2023-10-26T01:41:16.216Z,7.70
2023-10-26T01:43:44.035Z,7.70
2023-10-26T01:46:18.391Z,7.70
2023-10-26T01:48:46.444Z,7.70
2023-10-26T01:51:16.570Z,7.70
2023-10-26T01:53:52.316Z,7.70
2023-10-26T01:56:20.356Z,7.60
2023-10-26T01:58:48.295Z,7.70
2023-10-26T02:01:22.239Z,7.60
2023-10-26T02:03:56.312Z,7.60
2023-10-26T02:06:37.325Z,7.60
2023-10-26T02:09:06.824Z,7.60
2023-10-26T02:11:34.840Z,7.60
2023-10-26T02:14:09.252Z,7.60
2023-10-26T02:16:37.143Z,7.60
2023-10-26T02:19:05.151Z,7.60
2023-10-26T02:21:40.333Z,7.60
2023-10-26T02:24:10.679Z,7.50
2023-10-26T02:26:38.580Z,7.50
2023-10-26T02:29:13.376Z,7.50
2023-10-26T02:31:41.228Z,7.50
2023-10-26T02:34:09.079Z,7.50
2023-10-26T02:36:43.256Z,7.50
2023-10-26T02:39:12.650Z,7.50
2023-10-26T02:41:40.657Z,7.40
2023-10-26T02:44:15.264Z,7.50
2023-10-26T02:46:43.126Z,7.50
2023-10-26T02:49:11.220Z,7.50
2023-10-26T02:51:45.328Z,7.40
2023-10-26T02:54:16.664Z,7.40
2023-10-26T02:56:44.641Z,7.40
2023-10-26T02:59:25.281Z,7.40
2023-10-26T03:01:53.119Z,7.40
2023-10-26T03:04:34.327Z,7.40
2023-10-26T03:07:02.327Z,7.40
2023-10-26T03:09:31.707Z,7.40
2023-10-26T03:12:06.268Z,7.40
2023-10-26T03:14:34.142Z,7.30
2023-10-26T03:17:02.122Z,7.40
2023-10-26T03:19:36.265Z,7.40
2023-10-26T03:22:04.321Z,7.30
2023-10-26T03:24:33.584Z,7.40
2023-10-26T03:27:08.293Z,7.30
2023-10-26T03:29:36.137Z,7.40
2023-10-26T03:32:05.184Z,7.30
2023-10-26T03:34:42.536Z,7.30
2023-10-26T03:37:10.718Z,7.30
2023-10-26T03:39:40.148Z,7.30
2023-10-26T03:42:14.627Z,7.30
2023-10-26T03:44:42.735Z,7.30
2023-10-26T03:47:10.781Z,7.30
2023-10-26T03:49:45.294Z,7.30
2023-10-26T03:52:13.795Z,7.30
2023-10-26T03:54:43.233Z,7.30
2023-10-26T03:57:18.431Z,7.30
2023-10-26T03:59:52.376Z,7.30
2023-10-26T04:02:27.441Z,7.40
2023-10-26T04:05:01.996Z,7.30
2023-10-26T04:07:36.285Z,7.40
2023-10-26T04:10:08.275Z,7.30
2023-10-26T04:12:43.241Z,7.40
2023-10-26T04:15:11.802Z,7.40
2023-10-26T04:17:40.259Z,7.40
2023-10-26T04:20:16.419Z,7.40
2023-10-26T04:22:44.324Z,7.40
2023-10-26T04:25:13.500Z,7.40
2023-10-26T04:27:48.334Z,7.40
2023-10-26T04:30:16.440Z,7.30
2023-10-26T04:32:44.385Z,7.30
2023-10-26T04:35:18.317Z,7.40
2023-10-26T04:37:46.215Z,7.40
2023-10-26T04:40:15.748Z,7.40
2023-10-26T04:42:50.314Z,7.30
2023-10-26T04:45:18.588Z,7.30
2023-10-26T04:47:46.501Z,7.40
2023-10-26T04:50:21.439Z,7.40
2023-10-26T04:52:49.520Z,7.40
2023-10-26T04:55:18.777Z,7.30
2023-10-26T04:57:53.461Z,7.30
2023-10-26T05:00:21.414Z,7.40
2023-10-26T05:02:49.534Z,7.40
2023-10-26T05:05:24.307Z,7.40
2023-10-26T05:07:52.266Z,7.30
2023-10-26T05:10:22.126Z,7.30
2023-10-26T05:12:56.269Z,7.30
2023-10-26T05:15:24.477Z,7.30
2023-10-26T05:17:52.370Z,7.30
2023-10-26T05:20:27.296Z,7.30
2023-10-26T05:22:55.170Z,7.30
2023-10-26T05:25:24.569Z,7.30
2023-10-26T05:28:00.313Z,7.30
2023-10-26T05:30:28.157Z,7.30
2023-10-26T05:32:56.239Z,7.30
2023-10-26T05:35:30.302Z,7.30
2023-10-26T05:37:58.277Z,7.30
2023-10-26T05:40:27.582Z,7.30
2023-10-26T05:43:04.446Z,7.30
2023-10-26T05:45:38.362Z,7.30
2023-10-26T05:48:16.534Z,7.30
2023-10-26T05:50:45.162Z,7.30
2023-10-26T05:53:13.047Z,7.30
2023-10-26T05:55:49.421Z,7.30
2023-10-26T05:58:17.264Z,7.30
2023-10-26T06:00:45.155Z,7.30
2023-10-26T06:03:19.813Z,7.30
2023-10-26T06:05:54.309Z,7.30
2023-10-26T06:08:28.408Z,7.30
2023-10-26T06:10:59.092Z,7.30
2023-10-26T06:13:26.287Z,7.30
2023-10-26T06:16:01.663Z,7.30
2023-10-26T06:18:29.627Z,7.30
2023-10-26T06:21:08.419Z,7.30
2023-10-26T06:23:36.286Z,7.30
2023-10-26T06:26:06.261Z,7.30
2023-10-26T06:28:40.320Z,7.30
2023-10-26T06:31:12.095Z,7.30
2023-10-26T06:33:49.450Z,7.30
2023-10-26T06:36:17.550Z,7.30
2023-10-26T06:38:45.761Z,7.30
2023-10-26T06:41:21.305Z,7.30
2023-10-26T06:43:49.300Z,7.30
2023-10-26T06:46:17.198Z,7.30
2023-10-26T06:48:51.422Z,7.30
2023-10-26T06:51:20.879Z,7.30
2023-10-26T06:53:48.744Z,7.30
2023-10-26T06:56:24.310Z,7.30
2023-10-26T06:58:52.217Z,7.30
2023-10-26T07:01:21.195Z,7.30
2023-10-26T07:03:56.585Z,7.30
2023-10-26T07:06:30.963Z,7.30
2023-10-26T07:09:05.624Z,7.40
2023-10-26T07:11:34.922Z,7.40
2023-10-26T07:14:02.735Z,7.40
2023-10-26T07:16:38.332Z,7.40
2023-10-26T07:19:06.473Z,7.40
2023-10-26T07:21:35.114Z,7.40
2023-10-26T07:24:09.350Z,7.40
2023-10-26T07:26:38.629Z,7.40
2023-10-26T07:29:06.675Z,7.40
2023-10-26T07:31:41.374Z,7.40
2023-10-26T07:34:09.270Z,7.40
2023-10-26T07:36:37.166Z,7.40
2023-10-26T07:39:46.381Z,7.40
2023-10-26T07:42:06.379Z,7.40
2023-10-26T07:44:44.525Z,7.30
2023-10-26T07:47:16.733Z,7.30
2023-10-26T07:49:51.521Z,7.40
2023-10-26T07:52:19.384Z,7.40
2023-10-26T07:54:47.450Z,7.40
2023-10-26T07:57:24.496Z,7.30
2023-10-26T07:59:52.389Z,7.30
2023-10-26T08:02:21.024Z,7.30
2023-10-26T08:04:57.574Z,7.30
2023-10-26T08:07:32.465Z,7.30
2023-10-26T08:22:09.526Z,7.40
2023-10-26T08:24:37.395Z,7.40
2023-10-26T08:27:06.191Z,7.40
2023-10-26T08:29:40.405Z,7.50
2023-10-26T08:32:08.700Z,7.40
2023-10-26T08:34:36.666Z,7.50
2023-10-26T08:37:13.979Z,7.50
2023-10-26T08:39:42.233Z,7.50
2023-10-26T08:42:11.749Z,7.50
2023-10-26T08:44:48.362Z,7.50
2023-10-26T08:47:21.245Z,7.60
2023-10-26T08:50:15.555Z,7.60
2023-10-26T08:52:46.276Z,7.60
2023-10-26T08:55:21.407Z,7.50
2023-10-26T08:57:50.359Z,7.60
2023-10-26T09:00:19.187Z,7.60
2023-10-26T09:02:53.584Z,7.60
2023-10-26T09:05:27.985Z,7.60
2023-10-26T09:08:03.342Z,7.60
2023-10-26T09:10:32.584Z,7.60
2023-10-26T09:13:02.614Z,7.60
2023-10-26T09:15:37.365Z,7.70
2023-10-26T09:18:12.892Z,7.80
2023-10-26T09:20:47.504Z,7.70
2023-10-26T09:23:31.099Z,7.70
2023-10-26T09:26:06.501Z,7.70
2023-10-26T09:28:49.927Z,7.80
2023-10-26T09:31:25.613Z,7.90
2023-10-26T09:33:53.637Z,7.90
2023-10-26T09:36:22.518Z,7.90
2023-10-26T09:38:58.611Z,8.00
2023-10-26T09:41:26.959Z,8.00
2023-10-26T09:43:54.909Z,8.00
2023-10-26T09:46:30.459Z,8.00
2023-10-26T09:49:00.108Z,8.00
2023-10-26T09:51:28.113Z,8.00
2023-10-26T09:54:05.669Z,8.00
2023-10-26T09:56:34.579Z,8.00
2023-10-26T09:59:02.521Z,8.00
2023-10-26T10:01:42.562Z,8.00
2023-10-26T10:04:19.628Z,8.00
2023-10-26T10:07:01.581Z,8.10
2023-10-26T10:09:31.508Z,8.00
2023-10-26T10:12:41.534Z,7.90
2023-10-26T10:15:36.206Z,7.90
2023-10-26T10:18:14.548Z,7.90
2023-10-26T10:20:43.353Z,8.00
2023-10-26T10:23:35.542Z,8.00
2023-10-26T10:26:20.066Z,8.10
2023-10-26T10:29:02.496Z,8.00
2023-10-26T10:31:43.304Z,8.00
2023-10-26T10:34:18.396Z,7.90
2023-10-26T10:37:12.732Z,7.90
2023-10-26T11:17:11.515Z,7.90
2023-10-26T11:19:39.431Z,7.90
2023-10-26T11:22:15.448Z,7.90
2023-10-26T11:24:44.048Z,8.00
2023-10-26T11:27:14.236Z,7.90
2023-10-26T11:29:49.446Z,7.90
2023-10-26T11:32:22.875Z,7.90
2023-10-26T11:35:17.669Z,7.90
2023-10-26T11:37:47.491Z,7.80
2023-10-26T11:40:16.832Z,7.80
2023-10-26T11:43:02.432Z,7.80
2023-10-26T11:45:31.419Z,7.80
2023-10-26T11:48:33.527Z,7.80
2023-10-26T11:51:04.034Z,7.80
2023-10-26T11:53:32.061Z,7.80
2023-10-26T11:56:07.565Z,7.90
2023-10-26T11:58:36.872Z,7.80
2023-10-26T12:01:06.209Z,7.70
2023-10-26T12:06:18.416Z,7.50
2023-10-26T12:08:52.479Z,7.60
2023-10-26T12:11:20.493Z,7.60
2023-10-26T12:13:48.358Z,7.50
2023-10-26T12:16:22.449Z,7.50
2023-10-26T12:18:51.946Z,7.60
2023-10-26T12:21:40.454Z,7.60
2023-10-26T12:24:15.436Z,7.50
2023-10-26T12:26:49.407Z,7.60
2023-10-26T12:29:17.373Z,7.60
2023-10-26T12:31:45.319Z,7.50
2023-10-26T12:34:21.437Z,7.50
2023-10-26T12:36:49.764Z,7.50
2023-10-26T12:39:17.733Z,7.50
2023-10-26T12:41:52.625Z,7.50
2023-10-26T12:44:21.607Z,7.50
2023-10-26T12:46:52.108Z,7.50
2023-10-26T12:49:28.580Z,7.50
2023-10-26T12:51:57.488Z,7.40
2023-10-26T12:54:25.427Z,7.40
2023-10-26T12:57:00.177Z,7.40
2023-10-26T12:59:29.216Z,7.30
2023-10-26T13:01:57.132Z,7.30
2023-10-26T13:04:32.453Z,7.30
2023-10-26T13:07:06.533Z,7.20
2023-10-26T13:09:41.620Z,7.20
2023-10-26T13:12:10.605Z,7.30
2023-10-26T13:14:38.784Z,7.20
2023-10-26T13:17:13.568Z,7.30
2023-10-26T13:19:43.489Z,7.30
2023-10-26T13:22:11.706Z,7.30
2023-10-26T13:24:46.682Z,7.30
2023-10-26T13:27:14.732Z,7.30
2023-10-26T13:29:42.836Z,7.30
2023-10-26T13:32:19.554Z,7.30
2023-10-26T13:34:49.033Z,7.30
2023-10-26T13:37:16.902Z,7.30
2023-10-26T13:39:57.445Z,7.30
2023-10-26T13:42:27.911Z,7.30
2023-10-26T13:44:55.966Z,7.40
2023-10-26T13:47:30.486Z,7.40
2023-10-26T13:49:59.786Z,7.30
2023-10-26T13:52:37.442Z,7.40
2023-10-26T13:55:06.601Z,7.40
2023-10-26T13:57:34.636Z,7.40
2023-10-26T14:00:14.521Z,7.40
2023-10-26T14:02:42.474Z,7.40
2023-10-26T14:05:30.507Z,7.40
2023-10-26T14:08:08.175Z,7.40
2023-10-26T14:10:42.440Z,7.30
2023-10-26T14:13:10.422Z,7.30
2023-10-26T14:15:38.762Z,7.30
2023-10-26T14:18:13.517Z,7.30
2023-10-26T14:20:42.827Z,7.30
2023-10-26T14:23:10.748Z,7.30
2023-10-26T14:25:45.602Z,7.20
2023-10-26T14:28:13.995Z,7.20
2023-10-26T14:30:42.505Z,7.20
2023-10-26T14:33:17.434Z,7.20
2023-10-26T14:35:51.639Z,7.20
2023-10-26T14:38:26.583Z,7.20
2023-10-26T14:41:05.556Z,7.20
2023-10-26T14:43:40.478Z,7.20
2023-10-26T14:46:11.551Z,7.20
2023-10-26T14:48:47.573Z,7.20
2023-10-26T14:51:16.960Z,7.20
2023-10-26T14:53:45.077Z,7.20
2023-10-26T14:56:19.478Z,7.20
2023-10-26T14:58:47.384Z,7.10
2023-10-26T15:01:15.289Z,7.10
2023-10-26T15:03:50.560Z,7.10
2023-10-26T15:47:34.513Z,6.90
2023-10-26T15:50:02.675Z,6.90
2023-10-26T15:52:30.668Z,6.90
2023-10-26T15:55:05.594Z,6.90
2023-10-26T15:57:34.634Z,6.90
2023-10-26T16:00:13.534Z,6.90
2023-10-26T16:02:46.457Z,6.90
2023-10-26T16:05:27.501Z,6.90
2023-10-26T16:08:02.179Z,6.90
2023-10-26T16:10:36.497Z,6.80
2023-10-26T16:13:04.397Z,6.80
2023-10-26T16:15:32.317Z,6.90
2023-10-26T16:18:08.630Z,6.90
2023-10-26T16:20:36.488Z,6.90
2023-10-26T16:23:04.344Z,6.80
2023-10-26T16:25:40.502Z,6.80
2023-10-26T16:28:12.009Z,6.80
2023-10-26T16:30:48.705Z,6.80
2023-10-26T16:33:20.053Z,6.80
2023-10-26T16:35:48.064Z,6.80
2023-10-26T16:38:22.612Z,6.80
2023-10-26T16:40:50.651Z,6.80
2023-10-26T16:43:19.935Z,6.80
2023-10-26T16:45:54.609Z,6.80
2023-10-26T16:48:24.439Z,6.80
2023-10-26T16:50:52.317Z,6.80
2023-10-26T16:53:31.405Z,6.80
2023-10-26T16:56:01.569Z,6.80
2023-10-26T16:58:36.619Z,6.80
2023-10-26T17:01:07.684Z,6.80
2023-10-26T17:03:43.579Z,6.80
2023-10-26T17:06:17.711Z,6.80
2023-10-26T17:08:52.498Z,6.80
2023-10-26T17:11:20.409Z,6.80
2023-10-26T17:13:48.324Z,6.80
2023-10-26T17:16:22.627Z,6.80
2023-10-26T17:18:52.407Z,6.80
2023-10-26T17:21:20.335Z,6.80
2023-10-26T17:23:53.690Z,6.80
2023-10-26T17:26:21.995Z,6.80
2023-10-26T17:28:50.051Z,6.80
2023-10-26T17:31:25.917Z,6.80
2023-10-26T17:33:55.314Z,6.80
2023-10-26T17:36:23.605Z,6.80
2023-10-26T17:38:58.541Z,6.80
2023-10-26T17:41:26.450Z,6.80
2023-10-26T17:43:54.820Z,6.80
2023-10-26T17:46:29.588Z,6.70
2023-10-26T17:48:59.611Z,6.80
2023-10-26T17:51:36.567Z,6.80
2023-10-26T17:54:05.254Z,6.70
2023-10-26T17:56:35.454Z,6.70
2023-10-26T17:59:10.545Z,6.70
2023-10-26T18:01:41.651Z,6.70
2023-10-26T18:04:17.708Z,6.70
2023-10-26T18:06:52.226Z,6.70
2023-10-26T18:09:26.560Z,6.70
2023-10-26T18:11:54.594Z,6.70
2023-10-26T18:14:23.384Z,6.70
2023-10-26T18:17:00.756Z,6.80
2023-10-26T18:19:33.514Z,6.80
2023-10-26T18:22:07.692Z,6.80
2023-10-26T18:24:35.635Z,6.80
2023-10-26T18:27:03.895Z,6.80
2023-10-26T18:29:38.832Z,6.80
2023-10-26T18:32:09.389Z,6.70
2023-10-26T18:34:45.712Z,6.80
2023-10-26T18:37:13.705Z,6.70
2023-10-26T18:39:41.752Z,6.70
2023-10-26T18:42:16.593Z,6.70
2023-10-26T18:44:44.490Z,6.80
2023-10-26T18:47:12.698Z,6.70
2023-10-26T18:49:48.584Z,6.80
2023-10-26T18:52:16.505Z,6.80
2023-10-26T18:54:44.407Z,6.80
2023-10-26T18:57:19.534Z,6.80
2023-10-26T18:59:47.476Z,6.70
2023-10-26T19:02:15.389Z,6.70
2023-10-26T19:04:51.559Z,6.70
2023-10-26T19:07:25.699Z,6.70
2023-10-26T19:10:00.630Z,6.70
2023-10-26T19:12:28.628Z,6.70
2023-10-26T19:14:57.205Z,6.70
2023-10-26T19:20:01.666Z,6.60
2023-10-26T19:22:29.590Z,6.60
2023-10-26T19:25:03.681Z,6.60
2023-10-26T19:27:31.790Z,6.60
2023-10-26T19:29:59.816Z,6.60
2023-10-26T19:32:34.645Z,6.60
2023-10-26T19:35:04.508Z,6.60
2023-10-26T19:37:33.282Z,6.60
2023-10-26T19:40:07.617Z,6.60
2023-10-26T19:42:37.750Z,6.60
2023-10-26T19:45:14.555Z,6.60
2023-10-26T19:47:44.135Z,6.60
2023-10-26T19:50:14.004Z,6.60
2023-10-26T19:52:48.603Z,6.60
2023-10-26T19:55:16.669Z,6.60
2023-10-26T19:57:44.552Z,6.60
2023-10-26T20:00:23.573Z,6.60
2023-10-26T20:02:51.620Z,6.60
2023-10-26T20:05:40.680Z,6.60
2023-10-26T20:08:09.001Z,6.60
2023-10-26T20:10:36.860Z,6.60
2023-10-26T20:13:11.623Z,6.60
2023-10-26T20:15:39.481Z,6.60
2023-10-26T20:18:08.404Z,6.60
2023-10-26T20:20:44.664Z,6.60
2023-10-26T20:23:12.621Z,6.60
2023-10-26T20:25:42.079Z,6.50
2023-10-26T20:28:17.660Z,6.50
2023-10-26T20:30:45.585Z,6.50
2023-10-26T20:33:13.499Z,6.50
2023-10-26T20:35:49.742Z,6.50
2023-10-26T20:38:17.718Z,6.50
2023-10-26T20:40:45.857Z,6.50
2023-10-26T20:43:20.641Z,6.50
2023-10-26T20:46:02.790Z,6.50
2023-10-26T20:48:37.601Z,6.50
2023-10-26T20:51:09.922Z,6.50
2023-10-26T20:53:44.559Z,6.50
2023-10-26T20:56:13.498Z,6.50
2023-10-26T20:58:41.369Z,6.60
2023-10-26T21:01:18.632Z,6.60
2023-10-26T21:03:46.710Z,6.50
2023-10-26T21:06:35.656Z,6.50
2023-10-26T21:09:05.592Z,6.50
2023-10-26T21:11:33.426Z,6.50
2023-10-26T21:14:07.752Z,6.50
2023-10-26T21:16:35.740Z,6.50
2023-10-26T21:19:03.999Z,6.50
2023-10-26T21:21:39.582Z,6.50
2023-10-26T21:24:08.943Z,6.50
2023-10-26T21:26:36.788Z,6.40
2023-10-26T21:29:11.558Z,6.40
2023-10-26T21:31:39.672Z,6.40
2023-10-26T21:34:07.638Z,6.50
2023-10-26T21:36:43.658Z,6.40
2023-10-26T21:39:11.729Z,6.40
2023-10-26T21:41:39.882Z,6.40
2023-10-26T21:44:14.629Z,6.40
2023-10-26T21:46:43.578Z,6.50
2023-10-26T21:49:11.694Z,6.50
2023-10-26T21:51:47.782Z,6.40
2023-10-26T21:54:15.645Z,6.40
2023-10-26T21:56:43.606Z,6.50
2023-10-26T21:59:17.603Z,6.50
2023-10-26T22:01:45.618Z,6.50
2023-10-26T22:04:22.050Z,6.40
2023-10-26T22:06:59.606Z,6.40
2023-10-26T22:09:41.531Z,6.40
2023-10-26T22:12:23.576Z,6.40
2023-10-26T22:14:51.692Z,6.40
2023-10-26T22:17:25.144Z,6.40
2023-10-26T22:20:00.691Z,6.40
2023-10-26T22:22:33.060Z,6.40
2023-10-26T22:25:07.651Z,6.40
2023-10-26T22:27:35.848Z,6.40
2023-10-26T22:30:04.075Z,6.40
2023-10-26T22:32:38.604Z,6.40
2023-10-26T22:35:06.901Z,6.40
2023-10-26T22:37:36.306Z,6.40
2023-10-26T22:40:10.622Z,6.30
2023-10-26T22:42:38.534Z,6.30
2023-10-26T22:45:07.673Z,6.30
2023-10-26T22:47:42.660Z,6.30
2023-10-26T22:50:11.021Z,6.30
2023-10-26T22:52:40.326Z,6.30
2023-10-26T22:55:15.638Z,6.30
2023-10-26T22:57:43.896Z,6.30
2023-10-26T23:00:12.841Z,6.20
2023-10-26T23:02:47.689Z,6.20
2023-10-26T23:05:15.604Z,6.20
2023-10-26T23:07:58.601Z,6.20
2023-10-26T23:10:26.521Z,6.20
2023-10-26T23:12:54.420Z,6.10
2023-10-26T23:15:28.631Z,6.10
2023-10-26T23:17:56.776Z,6.20
2023-10-26T23:20:24.939Z,6.20
2023-10-26T23:23:00.630Z,6.20
2023-10-26T23:25:28.857Z,6.10
2023-10-26T23:27:56.879Z,6.10
2023-10-26T23:30:31.823Z,6.10
2023-10-26T23:33:00.382Z,6.10
2023-10-26T23:35:29.344Z,6.00
2023-10-26T23:38:05.616Z,6.00
2023-10-26T23:40:33.515Z,6.00
2023-10-26T23:43:04.414Z,6.00
2023-10-26T23:45:38.638Z,6.00
2023-10-26T23:48:06.688Z,6.00
2023-10-26T23:50:34.592Z,6.00
2023-10-26T23:53:10.653Z,6.00
2023-10-26T23:55:38.542Z,6.00
2023-10-26T23:58:08.502Z,6.00
